Racecast

LaShae Kingston

Legion of Zoom Track Club (VA) · 12 · Compare head to head

Athlete rating 103.4
Best race 104.0 TF
Races 37
Seasons 3 2024 — 2026
Speed rating — all races

Track & Field

TF speed rating

2026 TF 101.1

Legion of Zoom Track Club (VA) · Grade 12

Date Meet Event Result Place Rating Difficulty PR/SR Flags
2026-06-13 AAU Virginia District Qualifier - South 400m 1:08.42 9th · 2nd on team -0.033
2026-06-13 AAU Virginia District Qualifier - South 800m 2:56.17 3rd · 2nd on team 104.0 -0.033 ★PR ★R SR RSR
2026-05-30 Va Beach Flames Invite 400m 1:04.71 7th · 1st on team -0.023 ★PR SR
2026-05-30 Va Beach Flames Invite 100m 13.06 8th · 1st on team -0.023 ★PR SR
2026-05-24 HR Hurricanes CAT 5 Invite 400m 1:06.61 4th · 1st on team -0.035
2026-05-24 HR Hurricanes CAT 5 Invite 200m 26.71 2nd · 1st on team -0.035 ★PR SR
2026-05-03 Queen Harrison Track Classic - -Youth Section 200m 27.66 3rd · 1st on team -0.033 PR SR
2026-05-03 Queen Harrison Track Classic - -Youth Section 400m 1:04.93 3rd · 1st on team -0.033 SR
2026-04-26 Virginia Pride Spring Kick-Off 400m 1:09.42 28th · 1st on team -0.029 SR
2026-04-26 Virginia Pride Spring Kick-Off 200m 28.45 20th · 1st on team -0.029 SR
2026-04-26 Virginia Pride Spring Kick-Off 800m 3:07.32 23rd · 2nd on team 98.1 -0.029 PR R SR RSR

2025 TF

Legion of Zoom Track Club (VA) · Grade 11

Date Meet Event Result Place Rating Difficulty PR/SR Flags
2025-07-12 Cannonball Cooper Invite 100m 13.19 4th · 1st on team -0.027 PR SR
2025-06-14 AAU Virginia District Qualifier (Southern) 200m 28.4 7th · 1st on team -0.041 SR
2025-06-14 AAU Virginia District Qualifier (Southern) 100m 13.49 4th · 1st on team -0.041 PR SR
2025-06-14 AAU Virginia District Qualifier (Southern) 400m 1:08.91 4th · 1st on team -0.041
2025-05-04 Queen Harrison Youth Invite 100m 13.57 4th · 1st on team -0.033 PR SR
2025-05-04 Queen Harrison Youth Invite 200m 28.41 5th · 1st on team -0.033 SR
2025-05-04 Queen Harrison Youth Invite 400m 1:04.91 4th · 1st on team -0.033 PR SR

2024 TF

Legion of Zoom Track Club (VA) · Grade 10

Date Meet Event Result Place Rating Difficulty PR/SR Flags
2024-06-29 AAU Region 05 National Qualifier 200m 29.24 10th · 2nd on team -0.034
2024-06-29 AAU Region 05 National Qualifier 200m 28.84 8th · 1st on team -0.034
2024-06-29 AAU Region 05 National Qualifier 100m 14.43 15th · 1st on team -0.034
2024-06-29 AAU Region 05 National Qualifier 400m 1:11.7 8th · 1st on team -0.034
2024-06-08 AAU Virginia South District Qualifier 100m 13.73 3rd · 1st on team -0.029 PR SR
2024-06-08 AAU Virginia South District Qualifier 200m 27.82 3rd · 1st on team -0.029 PR SR
2024-06-08 AAU Virginia South District Qualifier 400m 1:08.23 4th · 1st on team -0.029
2024-06-01 VB Flames Invitational 200m 28.43 10th · 1st on team -0.023 PR SR
2024-06-01 VB Flames Invitational 100m 13.89 16th · 1st on team -0.023
2024-05-11 2024 EE Lightning "Legends" Invite 100m 13.75 8th · 1st on team -0.043 PR SR
2024-05-11 2024 EE Lightning "Legends" Invite 200m 29.79 10th · 1st on team -0.043
2024-05-11 2024 EE Lightning "Legends" Invite 400m 1:08.2 11th · 2nd on team -0.043 PR SR
2024-05-05 Queen Harrison Invite 200m 29.61 5th · 2nd on team -0.033 PR SR
2024-05-05 Queen Harrison Invite 400m 1:11.89 6th · 2nd on team -0.033 PR SR
2024-05-05 Queen Harrison Invite 100m 13.88 2nd · 1st on team -0.033 PR SR
2024-04-20 Darius Dixon Invite 200m 32 10th · 1st on team -0.019
2024-04-13 Speed Capital Richmond 100m 14.44 10th · 2nd on team -0.033 PR SR
2024-04-13 Speed Capital Richmond 200m 30.31 5th · 1st on team -0.033 PR SR
2024-04-13 Speed Capital Richmond 100m 14.11 8th · 1st on team -0.033 PR SR